createdAt,value
2023-05-21T00:04:20.131Z,73.18
2023-05-21T00:09:21.934Z,73.16
2023-05-21T00:14:23.727Z,73.15
2023-05-21T00:19:27.251Z,73.45
2023-05-21T00:24:29.439Z,73.30
2023-05-21T00:29:31.169Z,73.38
2023-05-21T00:34:32.899Z,73.76
2023-05-21T00:39:34.600Z,73.52
2023-05-21T00:44:36.392Z,73.64
2023-05-21T00:49:38.383Z,73.76
2023-05-21T00:54:40.060Z,73.85
2023-05-21T00:59:41.904Z,73.94
2023-05-21T01:04:45.434Z,74.26
2023-05-21T01:09:47.446Z,74.40
2023-05-21T01:14:49.917Z,74.59
2023-05-21T01:19:52.726Z,74.47
2023-05-21T01:24:55.585Z,75.04
2023-05-21T01:29:57.870Z,75.01
2023-05-21T01:35:29.605Z,75.26
2023-05-21T01:40:54.306Z,75.53
2023-05-21T01:45:57.385Z,75.42
2023-05-21T01:51:05.935Z,75.68
2023-05-21T01:56:08.218Z,76.06
2023-05-21T02:01:10.130Z,76.12
2023-05-21T02:06:12.039Z,76.53
2023-05-21T02:11:14.200Z,76.49
2023-05-21T02:16:16.225Z,76.85
2023-05-21T02:21:17.988Z,77.46
2023-05-21T02:26:19.800Z,77.22
2023-05-21T02:31:21.545Z,77.50
2023-05-21T02:36:25.242Z,78.11
2023-05-21T02:41:27.203Z,77.90
2023-05-21T02:46:29.009Z,78.00
2023-05-21T02:51:31.551Z,77.99
2023-05-21T02:56:33.551Z,78.27
2023-05-21T03:01:35.423Z,78.28
2023-05-21T03:06:37.258Z,78.30
2023-05-21T03:11:38.999Z,78.11
2023-05-21T03:16:41.898Z,78.16
2023-05-21T03:21:44.708Z,78.30
2023-05-21T03:26:48.231Z,78.23
2023-05-21T03:31:52.907Z,78.24
2023-05-21T03:36:54.815Z,78.02
2023-05-21T03:41:57.294Z,77.93
2023-05-21T03:47:19.086Z,77.62
2023-05-21T03:52:21.049Z,77.01
2023-05-21T03:57:23.252Z,75.83
2023-05-21T04:02:28.202Z,74.45
2023-05-21T04:07:30.202Z,73.08
2023-05-21T04:12:32.107Z,72.55
2023-05-21T04:17:34.580Z,71.77
2023-05-21T04:22:37.294Z,70.21
2023-05-21T04:27:39.392Z,69.03
2023-05-21T04:32:45.889Z,66.20
2023-05-21T04:37:47.744Z,62.93
2023-05-21T04:42:50.983Z,58.80
2023-05-21T04:47:53.771Z,54.11
2023-05-21T04:52:55.902Z,49.31
2023-05-21T04:57:57.840Z,46.85
2023-05-21T05:02:59.979Z,44.81
2023-05-21T05:08:02.588Z,42.45
2023-05-21T05:13:04.414Z,39.71
2023-05-21T05:18:08.754Z,38.53
2023-05-21T05:23:10.857Z,36.96
2023-05-21T05:28:13.269Z,35.94
2023-05-21T05:33:15.066Z,34.57
2023-05-21T05:38:17.456Z,33.49
2023-05-21T05:43:19.403Z,33.14
2023-05-21T05:48:21.549Z,31.84
2023-05-21T05:53:23.338Z,32.33
2023-05-21T05:58:26.012Z,31.41
2023-05-21T06:03:46.086Z,31.00
2023-05-21T06:08:50.264Z,30.24
2023-05-21T06:13:53.942Z,29.97
2023-05-21T06:18:57.423Z,29.62
2023-05-21T06:23:59.772Z,29.29
2023-05-21T06:29:03.911Z,28.88
2023-05-21T06:34:06.117Z,28.59
2023-05-21T06:39:08.083Z,28.02
2023-05-21T06:44:11.125Z,27.86
2023-05-21T06:49:36.851Z,27.94
2023-05-21T06:54:38.817Z,27.80
2023-05-21T06:59:41.533Z,27.93
2023-05-21T07:04:43.885Z,26.77
2023-05-21T07:09:45.790Z,27.64
2023-05-21T07:14:47.512Z,27.49
2023-05-21T07:19:49.479Z,27.12
2023-05-21T07:24:51.382Z,27.18
2023-05-21T07:29:53.406Z,27.03
2023-05-21T07:34:56.612Z,27.57
2023-05-21T07:39:59.448Z,26.77
2023-05-21T07:45:02.262Z,26.75
2023-05-21T07:50:06.352Z,25.99
2023-05-21T07:55:10.403Z,26.49
2023-05-21T08:00:16.374Z,26.64
2023-05-21T08:05:23.610Z,26.66
2023-05-21T08:10:25.892Z,25.60
2023-05-21T08:15:27.929Z,25.30
2023-05-21T08:20:31.180Z,25.35
2023-05-21T08:25:33.238Z,25.86
2023-05-21T08:30:36.166Z,26.27
2023-05-21T08:35:38.126Z,26.03
2023-05-21T08:40:52.296Z,25.50
2023-05-21T08:45:55.573Z,26.34
2023-05-21T08:51:01.171Z,26.48
2023-05-21T08:56:07.485Z,25.65
2023-05-21T09:01:25.589Z,25.40
2023-05-21T09:06:47.054Z,26.16
2023-05-21T09:11:49.637Z,25.68
2023-05-21T09:16:51.710Z,25.56
2023-05-21T09:21:53.987Z,25.67
2023-05-21T09:26:59.108Z,25.32
2023-05-21T09:32:07.907Z,25.93
2023-05-21T09:37:23.704Z,25.92
2023-05-21T09:42:30.150Z,26.87
2023-05-21T09:47:32.565Z,26.68
2023-05-21T09:52:36.760Z,27.83
2023-05-21T09:57:42.706Z,28.65
2023-05-21T10:02:47.095Z,28.94
2023-05-21T10:07:53.701Z,29.22
2023-05-21T10:13:00.589Z,30.81
2023-05-21T10:18:03.580Z,30.76
2023-05-21T10:23:06.237Z,30.95
2023-05-21T10:28:08.076Z,31.59
2023-05-21T10:33:23.645Z,31.88
2023-05-21T10:38:27.602Z,32.67
2023-05-21T10:43:49.309Z,31.90
2023-05-21T10:49:17.808Z,31.67
2023-05-21T10:54:42.173Z,32.56
2023-05-21T10:59:47.036Z,32.02
2023-05-21T11:04:58.774Z,32.24
2023-05-21T11:10:29.971Z,31.02
2023-05-21T11:15:57.681Z,30.46
2023-05-21T11:21:16.186Z,29.59
2023-05-21T11:26:28.960Z,29.26
2023-05-21T11:31:38.798Z,29.30
2023-05-21T11:36:43.768Z,29.52
2023-05-21T11:41:52.614Z,29.83
2023-05-21T11:46:54.930Z,29.09
2023-05-21T11:51:57.478Z,29.56
2023-05-21T11:56:59.987Z,30.64
2023-05-21T12:02:05.292Z,31.32
2023-05-21T12:07:07.827Z,31.04
2023-05-21T12:12:11.407Z,30.93
2023-05-21T12:17:16.645Z,30.51
2023-05-21T12:22:18.837Z,30.86
2023-05-21T12:27:22.134Z,30.91
2023-05-21T12:32:28.398Z,31.03
2023-05-21T12:37:32.487Z,30.93
2023-05-21T12:42:36.853Z,31.30
2023-05-21T12:47:39.078Z,31.16
2023-05-21T12:52:43.184Z,31.74
2023-05-21T12:57:45.679Z,32.13
2023-05-21T13:02:47.857Z,32.38
2023-05-21T13:07:51.584Z,32.64
2023-05-21T13:12:53.517Z,32.87
2023-05-21T13:17:56.914Z,32.96
2023-05-21T13:22:59.095Z,33.39
2023-05-21T13:28:05.225Z,33.28
2023-05-21T13:33:07.324Z,33.01
2023-05-21T13:38:09.326Z,32.91
2023-05-21T13:43:11.143Z,33.11
2023-05-21T13:48:12.947Z,33.41
2023-05-21T13:53:14.777Z,33.58
2023-05-21T13:58:16.599Z,33.27
2023-05-21T14:03:18.528Z,33.17
2023-05-21T14:08:21.362Z,33.28
2023-05-21T14:13:23.077Z,33.29
2023-05-21T14:18:24.990Z,33.42
2023-05-21T14:23:26.770Z,33.55
2023-05-21T14:28:28.478Z,33.73
2023-05-21T14:33:34.428Z,33.75
2023-05-21T14:38:36.169Z,33.93
2023-05-21T14:43:37.924Z,33.75
2023-05-21T14:48:39.974Z,33.35
2023-05-21T14:53:42.081Z,32.28
2023-05-21T14:58:43.785Z,32.73
2023-05-21T15:03:45.654Z,32.35
2023-05-21T15:08:47.534Z,32.25
2023-05-21T15:13:49.387Z,30.59
2023-05-21T15:18:51.443Z,31.00
2023-05-21T15:23:53.321Z,30.91
2023-05-21T15:28:55.275Z,31.74
2023-05-21T15:33:58.455Z,31.90
2023-05-21T15:39:03.558Z,32.15
2023-05-21T15:44:05.450Z,33.16
2023-05-21T15:49:07.594Z,34.20
2023-05-21T15:54:09.263Z,34.79
2023-05-21T15:59:11.961Z,34.30
2023-05-21T16:04:15.722Z,35.56
2023-05-21T16:09:17.548Z,36.51
2023-05-21T16:14:20.603Z,37.23
2023-05-21T16:19:22.810Z,38.21
2023-05-21T16:24:24.578Z,38.20
2023-05-21T16:29:27.638Z,38.32
2023-05-21T16:34:29.636Z,38.67
2023-05-21T16:39:31.367Z,38.78
2023-05-21T16:44:33.144Z,39.13
2023-05-21T16:49:34.869Z,39.61
2023-05-21T16:54:36.563Z,40.17
2023-05-21T16:59:38.225Z,39.66
2023-05-21T17:04:40.050Z,40.30
2023-05-21T17:09:41.882Z,40.63
2023-05-21T17:14:43.663Z,40.98
2023-05-21T17:19:45.518Z,41.27
2023-05-21T17:24:47.471Z,41.78
2023-05-21T17:29:49.266Z,41.07
2023-05-21T17:34:53.064Z,41.01
2023-05-21T17:39:55.121Z,40.84
2023-05-21T17:44:56.864Z,41.22
2023-05-21T17:49:58.735Z,41.60
2023-05-21T17:55:01.271Z,41.91
2023-05-21T18:00:05.120Z,42.25
2023-05-21T18:05:13.812Z,42.63
2023-05-21T18:10:15.706Z,43.24
2023-05-21T18:15:17.558Z,43.77
2023-05-21T18:20:19.351Z,44.32
2023-05-21T18:25:21.423Z,44.80
2023-05-21T18:30:23.146Z,45.01
2023-05-21T18:35:24.830Z,45.48
2023-05-21T18:40:30.404Z,46.02
2023-05-21T18:45:33.373Z,46.38
2023-05-21T18:50:37.052Z,46.82
2023-05-21T18:55:39.118Z,47.27
2023-05-21T19:00:42.560Z,47.59
2023-05-21T19:05:44.483Z,47.85
2023-05-21T19:10:46.439Z,48.64
2023-05-21T19:15:48.959Z,49.29
2023-05-21T19:20:50.928Z,49.49
2023-05-21T19:25:52.724Z,49.81
2023-05-21T19:30:54.433Z,50.18
2023-05-21T19:35:56.836Z,50.65
2023-05-21T19:40:58.556Z,51.08
2023-05-21T19:46:00.554Z,51.72
2023-05-21T19:51:02.896Z,52.12
2023-05-21T19:56:04.683Z,52.60
2023-05-21T20:01:06.551Z,52.91
2023-05-21T20:06:08.933Z,53.16
2023-05-21T20:11:10.956Z,52.76
2023-05-21T20:16:12.862Z,53.18
2023-05-21T20:21:18.107Z,53.04
2023-05-21T20:26:20.081Z,52.96
2023-05-21T20:31:22.478Z,53.21
2023-05-21T20:36:25.863Z,53.18
2023-05-21T20:41:35.784Z,53.58
2023-05-21T20:46:38.475Z,54.01
2023-05-21T20:51:41.529Z,54.05
2023-05-21T20:56:45.065Z,54.22
2023-05-21T21:01:47.098Z,54.85
2023-05-21T21:06:50.376Z,55.02
2023-05-21T21:11:52.735Z,54.98
2023-05-21T21:16:54.475Z,55.45
2023-05-21T21:21:56.437Z,55.45
2023-05-21T21:26:58.227Z,55.71
2023-05-21T21:32:00.292Z,55.56
2023-05-21T21:37:02.125Z,55.77
2023-05-21T21:42:04.906Z,55.79
2023-05-21T21:47:10.924Z,55.62
2023-05-21T21:52:15.731Z,55.73
2023-05-21T21:57:17.445Z,55.87
2023-05-21T22:02:19.221Z,55.71
2023-05-21T22:07:21.107Z,55.71
2023-05-21T22:12:22.978Z,55.52
2023-05-21T22:17:24.842Z,55.54
2023-05-21T22:22:26.872Z,55.58
2023-05-21T22:27:28.563Z,55.53
2023-05-21T22:32:30.257Z,55.82
2023-05-21T22:37:32.248Z,55.79
2023-05-21T22:42:35.526Z,56.13
2023-05-21T22:47:39.723Z,56.20
2023-05-21T22:52:41.981Z,56.36
2023-05-21T22:57:44.295Z,56.44
2023-05-21T23:02:47.103Z,56.79
2023-05-21T23:07:49.747Z,57.19
2023-05-21T23:12:54.084Z,57.13
2023-05-21T23:17:57.004Z,57.31
2023-05-21T23:22:59.210Z,57.64
2023-05-21T23:28:01.004Z,58.72
2023-05-21T23:33:03.044Z,58.22
2023-05-21T23:38:05.997Z,58.38
2023-05-21T23:43:13.937Z,58.93
2023-05-21T23:48:17.616Z,59.37
2023-05-21T23:53:20.011Z,59.87
2023-05-21T23:58:21.716Z,60.21
